createdAt,value
2019-01-22T00:01:20.275Z,-5.40
2019-01-22T00:04:01.755Z,-5.40
2019-01-22T00:06:31.798Z,-5.60
2019-01-22T00:09:20.876Z,-5.50
2019-01-22T00:11:50.331Z,-5.60
2019-01-22T00:14:39.608Z,-5.60
2019-01-22T00:17:28.682Z,-5.60
2019-01-22T00:20:19.223Z,-5.60
2019-01-22T00:23:10.100Z,-5.50
2019-01-22T00:26:00.441Z,-5.60
2019-01-22T00:34:25.590Z,-5.50
2019-01-22T00:37:14.849Z,-5.70
2019-01-22T00:40:03.647Z,-5.70
2019-01-22T00:42:52.751Z,-5.70
2019-01-22T00:45:41.996Z,-5.80
2019-01-22T00:48:30.819Z,-5.80
2019-01-22T00:51:19.768Z,-5.80
2019-01-22T00:56:56.343Z,-5.80
2019-01-22T00:59:37.613Z,-5.80
2019-01-22T01:02:18.875Z,-5.80
2019-01-22T01:05:00.788Z,-5.80
2019-01-22T01:07:42.214Z,-5.80
2019-01-22T01:10:23.976Z,-5.90
2019-01-22T01:13:05.590Z,-5.90
2019-01-22T01:15:47.101Z,-6.00
2019-01-22T01:18:27.555Z,-5.90
2019-01-22T01:21:08.708Z,-5.90
2019-01-22T01:23:50.880Z,-5.90
2019-01-22T01:26:21.367Z,-5.90
2019-01-22T01:29:10.480Z,-5.90
2019-01-22T01:31:59.627Z,-5.90
2019-01-22T01:34:29.973Z,-6.00
2019-01-22T01:37:19.076Z,-5.90
2019-01-22T01:39:48.884Z,-5.80
2019-01-22T01:42:37.651Z,-5.80
2019-01-22T01:45:26.971Z,-5.70
2019-01-22T01:48:16.158Z,-5.60
2019-01-22T01:51:05.098Z,-5.60
2019-01-22T01:53:54.163Z,-5.50
2019-01-22T01:56:42.997Z,-5.50
2019-01-22T01:59:31.823Z,-5.40
2019-01-22T02:02:01.862Z,-5.30
2019-01-22T02:04:42.692Z,-5.30
2019-01-22T02:07:24.220Z,-5.20
2019-01-22T02:10:05.075Z,-5.10
2019-01-22T02:12:49.156Z,-5.00
2019-01-22T02:15:24.218Z,-5.00
2019-01-22T02:18:16.083Z,-4.90
2019-01-22T02:21:23.868Z,-4.80
2019-01-22T02:24:20.844Z,-4.80
2019-01-22T02:27:28.700Z,-4.70
2019-01-22T02:30:36.557Z,-4.60
2019-01-22T02:36:32.907Z,-4.40
2019-01-22T02:39:40.427Z,-4.30
2019-01-22T02:42:48.351Z,-4.30
2019-01-22T02:45:56.364Z,-4.20
2019-01-22T02:49:04.207Z,-4.20
2019-01-22T02:52:12.295Z,-4.10
2019-01-22T02:55:03.234Z,-4.00
2019-01-22T02:58:11.096Z,-4.00
2019-01-22T03:01:19.093Z,-4.00
2019-01-22T03:04:10.953Z,-4.00
2019-01-22T03:06:52.539Z,-3.90
2019-01-22T03:09:33.847Z,-3.90
2019-01-22T03:12:14.750Z,-3.90
2019-01-22T03:14:55.862Z,-3.90
2019-01-22T03:17:37.448Z,-3.80
2019-01-22T03:20:28.949Z,-3.80
2019-01-22T03:23:36.853Z,-3.70
2019-01-22T03:26:44.791Z,-3.60
2019-01-22T03:29:52.683Z,-3.60
2019-01-22T03:32:54.616Z,-3.60
2019-01-22T03:35:48.238Z,-3.50
2019-01-22T03:38:29.014Z,-3.60
2019-01-22T03:41:10.515Z,-3.60
2019-01-22T03:43:52.088Z,-3.50
2019-01-22T03:46:33.177Z,-3.50
2019-01-22T03:49:14.715Z,-3.40
2019-01-22T03:51:56.526Z,-3.40
2019-01-22T03:54:37.786Z,-3.40
2019-01-22T03:57:18.559Z,-3.40
2019-01-22T04:00:00.582Z,-3.40
2019-01-22T04:02:41.743Z,-3.30
2019-01-22T04:05:23.213Z,-3.30
2019-01-22T04:08:05.016Z,-3.30
2019-01-22T04:10:46.051Z,-3.20
2019-01-22T04:13:27.185Z,-3.20
2019-01-22T04:15:57.588Z,-3.20
2019-01-22T04:18:46.756Z,-3.20
2019-01-22T04:21:37.834Z,-3.20
2019-01-22T04:24:45.403Z,-3.20
2019-01-22T04:27:53.392Z,-3.10
2019-01-22T04:31:00.927Z,-3.10
2019-01-22T04:34:08.827Z,-3.00
2019-01-22T04:37:16.536Z,-3.00
2019-01-22T04:40:24.230Z,-3.00
2019-01-22T04:43:32.115Z,-3.00
2019-01-22T04:46:41.708Z,-3.00
2019-01-22T04:53:09.115Z,-2.90
2019-01-22T04:56:16.975Z,-2.90
2019-01-22T04:59:25.034Z,-2.90
2019-01-22T05:02:32.893Z,-2.90
2019-01-22T05:05:29.895Z,-3.00
2019-01-22T05:08:11.296Z,-3.10
2019-01-22T05:10:53.232Z,-3.10
2019-01-22T05:13:34.064Z,-3.10
2019-01-22T05:16:15.099Z,-3.10
2019-01-22T05:18:55.984Z,-3.10
2019-01-22T05:21:37.458Z,-3.10
2019-01-22T05:24:18.716Z,-3.10
2019-01-22T05:26:59.743Z,-3.10
2019-01-22T05:29:40.709Z,-3.10
2019-01-22T05:32:21.852Z,-3.20
2019-01-22T05:35:02.988Z,-3.10
2019-01-22T05:37:44.463Z,-3.10
2019-01-22T05:40:25.620Z,-3.00
2019-01-22T05:43:33.322Z,-3.10
2019-01-22T05:46:41.254Z,-3.00
2019-01-22T05:49:51.032Z,-3.10
2019-01-22T05:52:58.912Z,-3.20
2019-01-22T05:55:49.534Z,-3.20
2019-01-22T05:58:57.415Z,-3.20
2019-01-22T06:01:49.371Z,-3.20
2019-01-22T06:07:45.788Z,-3.10
2019-01-22T06:10:28.790Z,-3.20
2019-01-22T06:13:10.195Z,-3.40
2019-01-22T06:15:51.406Z,-3.40
2019-01-22T06:18:32.547Z,-3.50
2019-01-22T06:21:14.116Z,-3.40
2019-01-22T06:23:55.441Z,-3.50
2019-01-22T06:26:36.975Z,-3.50
2019-01-22T06:29:17.599Z,-3.50
2019-01-22T06:31:59.192Z,-3.50
2019-01-22T06:34:40.597Z,-3.40
2019-01-22T06:37:21.596Z,-3.30
2019-01-22T06:40:02.937Z,-3.50
2019-01-22T06:42:44.311Z,-3.60
2019-01-22T06:45:25.750Z,-3.60
2019-01-22T06:48:06.904Z,-3.50
2019-01-22T06:50:48.764Z,-3.40
2019-01-22T06:56:42.683Z,-3.30
2019-01-22T06:59:24.235Z,-3.40
2019-01-22T07:02:26.589Z,-3.30
2019-01-22T07:05:34.475Z,-3.20
2019-01-22T07:08:42.438Z,-3.20
2019-01-22T07:11:50.415Z,-3.30
2019-01-22T07:14:32.403Z,-3.20
2019-01-22T07:17:16.971Z,-3.40
2019-01-22T07:20:18.018Z,-3.30
2019-01-22T07:23:25.957Z,-3.40
2019-01-22T07:26:33.812Z,-3.40
2019-01-22T07:29:41.738Z,-3.30
2019-01-22T07:32:49.651Z,-3.30
2019-01-22T07:35:50.825Z,-3.20
2019-01-22T07:38:58.447Z,-3.10
2019-01-22T07:42:06.288Z,-3.10
2019-01-22T07:45:14.311Z,-3.10
2019-01-22T07:48:13.831Z,-3.10
2019-01-22T07:51:21.361Z,-3.20
2019-01-22T07:54:29.042Z,-3.10
2019-01-22T07:57:36.548Z,-3.00
2019-01-22T08:00:36.660Z,-3.00
2019-01-22T08:04:02.940Z,-3.00
2019-01-22T08:06:55.167Z,-2.90
2019-01-22T08:09:36.495Z,-3.00
2019-01-22T08:12:17.089Z,-3.10
2019-01-22T08:14:58.028Z,-3.00
2019-01-22T08:17:39.226Z,-2.90
2019-01-22T08:20:20.039Z,-2.80
2019-01-22T08:23:01.944Z,-2.70
2019-01-22T08:25:42.832Z,-2.70
2019-01-22T08:28:24.293Z,-2.60
2019-01-22T08:31:05.655Z,-2.60
2019-01-22T08:33:47.240Z,-2.50
2019-01-22T08:36:28.595Z,-2.50
2019-01-22T08:39:10.057Z,-2.40
2019-01-22T08:41:51.686Z,-2.50
2019-01-22T08:44:33.516Z,-2.50
2019-01-22T08:47:14.227Z,-2.40
2019-01-22T08:49:55.332Z,-2.40
2019-01-22T08:52:36.998Z,-2.30
2019-01-22T08:55:44.607Z,-2.10
2019-01-22T08:58:52.132Z,-2.10
2019-01-22T09:01:59.967Z,-1.90
2019-01-22T09:05:07.549Z,-1.80
2019-01-22T09:08:15.241Z,-1.90
2019-01-22T09:11:23.095Z,-1.70
2019-01-22T09:14:30.832Z,-1.60
2019-01-22T09:17:38.399Z,-1.70
2019-01-22T09:20:46.382Z,-1.60
2019-01-22T09:23:54.379Z,-1.60
2019-01-22T09:27:02.284Z,-1.50
2019-01-22T09:30:09.940Z,-1.40
2019-01-22T09:33:17.831Z,-1.40
2019-01-22T09:36:25.698Z,-1.20
2019-01-22T09:39:15.981Z,-1.20
2019-01-22T09:42:05.531Z,-1.30
2019-01-22T09:44:54.134Z,-1.20
2019-01-22T09:47:43.445Z,-1.30
2019-01-22T09:50:32.577Z,-1.30
2019-01-22T09:53:21.491Z,-1.20
2019-01-22T09:56:10.331Z,-1.20
2019-01-22T09:58:59.613Z,-1.30
2019-01-22T10:01:48.835Z,-1.20
2019-01-22T10:04:37.967Z,-1.10
2019-01-22T10:07:27.160Z,-0.90
2019-01-22T10:10:16.960Z,-1.10
2019-01-22T10:13:05.927Z,-1.10
2019-01-22T10:15:54.776Z,-1.00
2019-01-22T10:18:43.707Z,-1.10
2019-01-22T10:21:32.231Z,-1.00
2019-01-22T10:24:21.445Z,-0.80
2019-01-22T10:27:10.248Z,-1.00
2019-01-22T10:29:58.738Z,-1.00
2019-01-22T10:32:47.491Z,-0.90
2019-01-22T10:35:36.575Z,-1.00
2019-01-22T10:38:25.714Z,-1.00
2019-01-22T10:41:07.175Z,-0.90
2019-01-22T10:43:48.759Z,-0.90
2019-01-22T10:46:30.328Z,-0.80
2019-01-22T10:49:11.305Z,-0.70
2019-01-22T10:51:52.731Z,-0.70
2019-01-22T10:54:34.507Z,-0.50
2019-01-22T10:57:15.848Z,-0.40
2019-01-22T10:59:57.404Z,-0.40
2019-01-22T11:02:39.039Z,-0.30
2019-01-22T11:05:20.491Z,-0.20
2019-01-22T11:08:02.417Z,-0.10
2019-01-22T11:13:26.242Z,0.10
2019-01-22T11:16:07.934Z,-0.10
2019-01-22T11:18:49.590Z,0.10
2019-01-22T11:24:30.437Z,0.20
2019-01-22T11:27:11.536Z,0.30
2019-01-22T11:29:41.312Z,0.30
2019-01-22T11:32:37.727Z,0.00
2019-01-22T11:35:26.724Z,0.10
2019-01-22T11:38:15.953Z,0.30
2019-01-22T11:41:04.935Z,0.40
2019-01-22T11:43:53.798Z,0.50
2019-01-22T11:46:42.647Z,0.60
2019-01-22T11:49:31.540Z,0.70
2019-01-22T11:52:20.884Z,0.70
2019-01-22T11:55:09.639Z,0.70
2019-01-22T11:57:58.836Z,0.90
2019-01-22T12:03:46.519Z,0.90
2019-01-22T12:06:35.414Z,0.90
2019-01-22T12:09:24.536Z,0.90
2019-01-22T12:12:13.512Z,0.90
2019-01-22T12:15:02.659Z,1.10
2019-01-22T12:17:32.872Z,1.00
2019-01-22T12:20:22.619Z,1.20
2019-01-22T12:23:03.644Z,1.30
2019-01-22T12:25:44.610Z,1.20
2019-01-22T12:28:15.054Z,1.40
2019-01-22T12:31:03.875Z,1.30
2019-01-22T12:33:52.805Z,1.30
2019-01-22T12:36:41.579Z,1.30
2019-01-22T12:39:30.480Z,1.10
2019-01-22T12:42:11.823Z,1.00
2019-01-22T12:44:53.352Z,1.20
2019-01-22T12:47:34.283Z,1.30
2019-01-22T12:50:16.111Z,1.50
2019-01-22T12:52:57.456Z,1.30
2019-01-22T12:55:37.933Z,1.40
2019-01-22T12:58:08.203Z,1.80
2019-01-22T13:00:57.314Z,1.70
2019-01-22T13:03:46.475Z,1.80
2019-01-22T13:06:35.668Z,1.80
2019-01-22T13:09:24.762Z,1.80
2019-01-22T13:12:13.590Z,1.80
2019-01-22T13:15:02.495Z,1.80
2019-01-22T13:17:51.644Z,1.90
2019-01-22T13:20:41.120Z,1.80
2019-01-22T13:23:29.595Z,1.70
2019-01-22T13:26:18.951Z,1.70
2019-01-22T13:29:07.904Z,1.90
2019-01-22T13:31:56.710Z,1.90
2019-01-22T13:34:45.876Z,1.90
2019-01-22T13:37:34.654Z,1.90
2019-01-22T13:43:25.432Z,1.70
2019-01-22T13:46:06.528Z,1.80
2019-01-22T13:48:48.111Z,1.90
2019-01-22T13:51:28.890Z,2.00
2019-01-22T13:54:10.294Z,1.80
2019-01-22T13:56:51.371Z,1.90
2019-01-22T13:59:32.948Z,1.90
2019-01-22T14:02:14.887Z,2.00
2019-01-22T14:04:56.183Z,1.70
2019-01-22T14:07:37.807Z,1.60
2019-01-22T14:10:19.467Z,1.70
2019-01-22T14:13:01.323Z,1.40
2019-01-22T14:15:42.443Z,1.30
2019-01-22T14:18:24.075Z,1.50
2019-01-22T14:21:05.726Z,1.80
2019-01-22T14:23:47.265Z,1.90
2019-01-22T14:26:28.795Z,1.90
2019-01-22T14:29:09.987Z,1.90
2019-01-22T14:31:51.871Z,2.10
2019-01-22T14:34:33.123Z,2.20
2019-01-22T14:37:14.503Z,2.20
2019-01-22T14:39:55.828Z,2.20
2019-01-22T14:42:26.202Z,2.20
2019-01-22T14:45:14.760Z,2.00
2019-01-22T14:48:03.738Z,1.80
2019-01-22T14:50:52.552Z,1.80
2019-01-22T14:53:23.227Z,2.10
2019-01-22T14:55:53.679Z,2.10
2019-01-22T14:58:42.527Z,2.10
2019-01-22T15:01:23.321Z,2.00
2019-01-22T15:04:04.788Z,1.80
2019-01-22T15:06:46.020Z,1.90
2019-01-22T15:09:27.515Z,1.90
2019-01-22T15:12:08.693Z,1.90
2019-01-22T15:14:38.491Z,1.90
2019-01-22T15:17:27.683Z,1.70
2019-01-22T15:20:19.855Z,1.60
2019-01-22T15:23:08.938Z,1.60
2019-01-22T15:25:57.780Z,1.60
2019-01-22T15:28:46.893Z,1.60
2019-01-22T15:31:17.196Z,1.70
2019-01-22T15:33:58.668Z,1.50
2019-01-22T15:36:40.296Z,1.40
2019-01-22T15:39:21.290Z,1.40
2019-01-22T15:45:06.266Z,1.20
2019-01-22T15:47:47.367Z,1.20
2019-01-22T15:50:28.176Z,1.20
2019-01-22T15:53:10.163Z,1.20
2019-01-22T15:55:51.497Z,1.10
2019-01-22T15:58:32.840Z,1.10
2019-01-22T16:01:14.047Z,1.10
2019-01-22T16:03:56.013Z,0.90
2019-01-22T16:06:37.174Z,0.90
2019-01-22T16:09:18.736Z,0.90
2019-01-22T16:12:00.734Z,0.80
2019-01-22T16:14:41.732Z,0.80
2019-01-22T16:17:23.156Z,0.70
2019-01-22T16:20:04.540Z,0.80
2019-01-22T16:22:45.996Z,0.70
2019-01-22T16:25:27.084Z,0.70
2019-01-22T16:28:08.679Z,0.80
2019-01-22T16:30:50.035Z,0.80
2019-01-22T16:36:02.936Z,0.60
2019-01-22T16:38:34.300Z,0.50
2019-01-22T16:41:04.667Z,0.50
2019-01-22T16:43:35.044Z,0.50
2019-01-22T16:48:54.526Z,0.50
2019-01-22T16:51:44.077Z,0.50
2019-01-22T16:54:32.575Z,0.50
2019-01-22T16:57:03.912Z,0.50
2019-01-22T17:02:41.200Z,0.50
2019-01-22T17:05:11.699Z,0.40
2019-01-22T17:07:42.134Z,0.50
2019-01-22T17:10:14.069Z,0.50
2019-01-22T17:13:03.013Z,0.60
2019-01-22T17:15:33.911Z,0.50
2019-01-22T17:18:15.036Z,0.50
2019-01-22T17:20:56.960Z,0.40
2019-01-22T17:23:38.029Z,0.40
2019-01-22T17:26:19.635Z,0.50
2019-01-22T17:29:01.047Z,0.40
2019-01-22T17:32:04.566Z,0.40
2019-01-22T17:34:44.340Z,0.40
2019-01-22T17:39:57.736Z,0.40
2019-01-22T17:42:27.438Z,0.40
2019-01-22T17:45:16.334Z,0.40
2019-01-22T17:48:05.598Z,0.40
2019-01-22T17:50:54.570Z,0.30
2019-01-22T17:53:43.791Z,0.30
2019-01-22T17:56:33.142Z,0.30
2019-01-22T17:59:21.999Z,0.30
2019-01-22T18:02:10.940Z,0.20
2019-01-22T18:05:00.385Z,0.20
2019-01-22T18:07:49.163Z,0.20
2019-01-22T18:10:38.272Z,0.10
2019-01-22T18:13:27.364Z,0.10
2019-01-22T18:16:16.831Z,0.10
2019-01-22T18:19:06.612Z,0.10
2019-01-22T18:21:55.714Z,0.10
2019-01-22T18:24:45.108Z,0.10
2019-01-22T18:27:26.787Z,0.10
2019-01-22T18:30:08.584Z,0.00
2019-01-22T18:32:49.696Z,0.00
2019-01-22T18:35:37.843Z,0.00
2019-01-22T18:38:15.468Z,0.00
2019-01-22T18:40:57.140Z,-0.10
2019-01-22T18:43:38.274Z,-0.10
2019-01-22T18:46:19.023Z,-0.10
2019-01-22T18:48:49.816Z,-0.20
2019-01-22T18:51:38.160Z,-0.30
2019-01-22T18:54:27.468Z,-0.30
2019-01-22T18:57:16.259Z,-0.40
2019-01-22T18:59:46.276Z,-0.40
2019-01-22T19:02:34.679Z,-0.40
2019-01-22T19:05:24.652Z,-0.50
2019-01-22T19:08:33.141Z,-0.50
2019-01-22T19:11:35.284Z,-0.50
2019-01-22T19:14:14.351Z,-0.60
2019-01-22T19:17:03.032Z,-0.70
2019-01-22T19:19:52.323Z,-0.70
2019-01-22T19:22:41.856Z,-0.80
2019-01-22T19:25:31.180Z,-0.80
2019-01-22T19:28:20.668Z,-0.90
2019-01-22T19:31:09.850Z,-1.00
2019-01-22T19:36:56.416Z,-1.00
2019-01-22T19:39:38.579Z,-1.10
2019-01-22T19:42:20.356Z,-1.20
2019-01-22T19:45:02.195Z,-1.20
2019-01-22T19:47:43.662Z,-1.30
2019-01-22T19:50:25.426Z,-1.30
2019-01-22T19:53:06.336Z,-1.40
2019-01-22T19:55:48.046Z,-1.40
2019-01-22T19:58:29.958Z,-1.50
2019-01-22T20:03:53.941Z,-1.50
2019-01-22T20:06:38.878Z,-1.50
2019-01-22T20:09:19.752Z,-1.60
2019-01-22T20:12:01.413Z,-1.60
2019-01-22T20:14:43.243Z,-1.70
2019-01-22T20:17:25.295Z,-1.70
2019-01-22T20:20:06.921Z,-1.80
2019-01-22T20:22:48.285Z,-1.80
2019-01-22T20:25:30.591Z,-1.80
2019-01-22T20:28:12.378Z,-1.90
2019-01-22T20:30:54.259Z,-1.90
2019-01-22T20:33:34.926Z,-1.90
2019-01-22T20:36:16.002Z,-2.00
2019-01-22T20:38:58.261Z,-2.00
2019-01-22T20:41:40.077Z,-2.00
2019-01-22T20:44:22.112Z,-2.10
2019-01-22T20:47:03.291Z,-2.00
2019-01-22T20:49:44.905Z,-2.00
2019-01-22T20:52:26.464Z,-2.00
2019-01-22T20:55:08.152Z,-2.00
2019-01-22T20:57:54.734Z,-1.90
2019-01-22T21:00:33.252Z,-1.90
2019-01-22T21:03:14.546Z,-1.90
2019-01-22T21:05:44.897Z,-1.80
2019-01-22T21:08:33.555Z,-1.80
2019-01-22T21:11:22.204Z,-1.70
2019-01-22T21:14:10.522Z,-1.70
2019-01-22T21:16:59.926Z,-1.70
2019-01-22T21:19:49.685Z,-1.60
2019-01-22T21:22:39.259Z,-1.60
2019-01-22T21:25:28.353Z,-1.60
2019-01-22T21:28:18.573Z,-1.60
2019-01-22T21:31:07.829Z,-1.60
2019-01-22T21:33:57.070Z,-1.50
2019-01-22T21:36:45.768Z,-1.50
2019-01-22T21:39:35.163Z,-1.50
2019-01-22T21:42:24.410Z,-1.50
2019-01-22T21:45:14.400Z,-1.50
2019-01-22T21:48:03.669Z,-1.50
2019-01-22T21:53:26.825Z,-1.50
2019-01-22T21:56:07.942Z,-1.50
2019-01-22T21:58:49.161Z,-1.50
2019-01-22T22:01:30.426Z,-1.50
2019-01-22T22:04:12.084Z,-1.50
2019-01-22T22:06:53.643Z,-1.50
2019-01-22T22:09:35.021Z,-1.50
2019-01-22T22:12:16.172Z,-1.50
2019-01-22T22:14:57.777Z,-1.50
2019-01-22T22:17:39.516Z,-1.50
2019-01-22T22:20:20.760Z,-1.50
2019-01-22T22:23:02.170Z,-1.50
2019-01-22T22:25:43.676Z,-1.50
2019-01-22T22:28:24.908Z,-1.50
2019-01-22T22:31:06.266Z,-1.50
2019-01-22T22:33:47.770Z,-1.50
2019-01-22T22:36:29.325Z,-1.50
2019-01-22T22:39:10.351Z,-1.60
2019-01-22T22:41:51.513Z,-1.50
2019-01-22T22:44:32.648Z,-1.50
2019-01-22T22:47:13.398Z,-1.70
2019-01-22T22:49:54.885Z,-1.80
2019-01-22T22:52:36.188Z,-1.70
2019-01-22T22:55:17.835Z,-1.60
2019-01-22T22:57:59.712Z,-1.60
2019-01-22T23:00:42.214Z,-1.70
2019-01-22T23:03:23.031Z,-1.70
2019-01-22T23:06:04.580Z,-1.70
2019-01-22T23:08:45.880Z,-1.70
2019-01-22T23:11:27.847Z,-1.60
2019-01-22T23:14:09.408Z,-1.60
2019-01-22T23:16:50.694Z,-1.60
2019-01-22T23:19:32.548Z,-1.60
2019-01-22T23:22:13.446Z,-1.60
2019-01-22T23:24:54.250Z,-1.50
2019-01-22T23:27:24.564Z,-1.60
2019-01-22T23:30:13.867Z,-1.50
2019-01-22T23:33:02.976Z,-1.50
2019-01-22T23:35:51.511Z,-1.50
2019-01-22T23:38:40.279Z,-1.40
2019-01-22T23:41:29.299Z,-1.40
2019-01-22T23:44:18.100Z,-1.40
2019-01-22T23:46:48.253Z,-1.40
2019-01-22T23:49:37.330Z,-1.40
2019-01-22T23:52:25.906Z,-1.50
2019-01-22T23:55:15.371Z,-1.50
2019-01-22T23:58:04.109Z,-1.50
